sensor_id;sensor_type;location;lat;lon;timestamp;P1;durP1;ratioP1;P2;durP2;ratioP2
3779;SDS011;1905;52.482;9.802;2023-02-27T00:00:24;2.30;;;2.20;;
3779;SDS011;1905;52.482;9.802;2023-02-27T00:02:52;4.70;;;2.87;;
3779;SDS011;1905;52.482;9.802;2023-02-27T00:05:20;6.83;;;2.50;;
3779;SDS011;1905;52.482;9.802;2023-02-27T00:07:48;9.30;;;2.60;;
3779;SDS011;1905;52.482;9.802;2023-02-27T00:10:16;4.57;;;2.20;;
3779;SDS011;1905;52.482;9.802;2023-02-27T00:12:44;2.27;;;2.07;;
3779;SDS011;1905;52.482;9.802;2023-02-27T00:15:14;2.10;;;2.00;;
3779;SDS011;1905;52.482;9.802;2023-02-27T00:17:44;4.03;;;2.10;;
3779;SDS011;1905;52.482;9.802;2023-02-27T00:20:13;5.80;;;2.97;;
3779;SDS011;1905;52.482;9.802;2023-02-27T00:22:42;2.53;;;2.17;;
3779;SDS011;1905;52.482;9.802;2023-02-27T00:25:10;4.90;;;2.13;;
3779;SDS011;1905;52.482;9.802;2023-02-27T00:27:38;4.20;;;1.93;;
3779;SDS011;1905;52.482;9.802;2023-02-27T00:30:07;4.30;;;2.47;;
3779;SDS011;1905;52.482;9.802;2023-02-27T00:32:38;4.93;;;3.10;;
3779;SDS011;1905;52.482;9.802;2023-02-27T00:35:07;1.97;;;1.87;;
3779;SDS011;1905;52.482;9.802;2023-02-27T00:37:35;2.47;;;2.07;;
3779;SDS011;1905;52.482;9.802;2023-02-27T00:40:04;2.47;;;2.27;;
3779;SDS011;1905;52.482;9.802;2023-02-27T00:42:33;4.27;;;2.27;;
3779;SDS011;1905;52.482;9.802;2023-02-27T00:45:00;4.10;;;2.50;;
3779;SDS011;1905;52.482;9.802;2023-02-27T00:47:29;3.03;;;2.10;;
3779;SDS011;1905;52.482;9.802;2023-02-27T00:49:58;2.93;;;2.30;;
3779;SDS011;1905;52.482;9.802;2023-02-27T00:52:26;2.00;;;1.90;;
3779;SDS011;1905;52.482;9.802;2023-02-27T00:54:54;2.30;;;2.10;;
3779;SDS011;1905;52.482;9.802;2023-02-27T00:57:22;2.20;;;2.10;;
3779;SDS011;1905;52.482;9.802;2023-02-27T00:59:49;5.53;;;2.90;;
3779;SDS011;1905;52.482;9.802;2023-02-27T01:02:17;2.70;;;1.90;;
3779;SDS011;1905;52.482;9.802;2023-02-27T01:04:45;4.07;;;2.27;;
3779;SDS011;1905;52.482;9.802;2023-02-27T01:07:14;1.90;;;1.80;;
3779;SDS011;1905;52.482;9.802;2023-02-27T01:09:41;2.30;;;2.10;;
3779;SDS011;1905;52.482;9.802;2023-02-27T01:12:09;6.00;;;2.33;;
3779;SDS011;1905;52.482;9.802;2023-02-27T01:14:36;3.80;;;2.23;;
3779;SDS011;1905;52.482;9.802;2023-02-27T01:17:04;5.00;;;1.80;;
3779;SDS011;1905;52.482;9.802;2023-02-27T01:19:31;2.77;;;2.10;;
3779;SDS011;1905;52.482;9.802;2023-02-27T01:21:59;2.60;;;2.40;;
3779;SDS011;1905;52.482;9.802;2023-02-27T01:24:28;2.33;;;2.00;;
3779;SDS011;1905;52.482;9.802;2023-02-27T01:26:55;5.20;;;2.90;;
3779;SDS011;1905;52.482;9.802;2023-02-27T01:29:23;3.17;;;2.30;;
3779;SDS011;1905;52.482;9.802;2023-02-27T01:31:50;2.70;;;2.50;;
3779;SDS011;1905;52.482;9.802;2023-02-27T01:34:18;2.53;;;1.60;;
3779;SDS011;1905;52.482;9.802;2023-02-27T01:36:45;7.10;;;1.77;;
3779;SDS011;1905;52.482;9.802;2023-02-27T01:39:14;2.33;;;2.20;;
3779;SDS011;1905;52.482;9.802;2023-02-27T01:41:43;2.40;;;2.20;;
3779;SDS011;1905;52.482;9.802;2023-02-27T01:44:12;2.87;;;2.67;;
3779;SDS011;1905;52.482;9.802;2023-02-27T01:46:40;5.40;;;2.80;;
3779;SDS011;1905;52.482;9.802;2023-02-27T01:49:11;4.23;;;2.20;;
3779;SDS011;1905;52.482;9.802;2023-02-27T01:51:42;3.17;;;1.80;;
3779;SDS011;1905;52.482;9.802;2023-02-27T01:54:14;2.83;;;2.33;;
3779;SDS011;1905;52.482;9.802;2023-02-27T01:56:46;4.13;;;2.57;;
3779;SDS011;1905;52.482;9.802;2023-02-27T01:59:13;1.47;;;1.37;;
3779;SDS011;1905;52.482;9.802;2023-02-27T02:01:42;7.70;;;2.90;;
3779;SDS011;1905;52.482;9.802;2023-02-27T02:04:11;3.00;;;1.77;;
3779;SDS011;1905;52.482;9.802;2023-02-27T02:06:46;3.10;;;2.80;;
3779;SDS011;1905;52.482;9.802;2023-02-27T02:09:18;3.03;;;2.43;;
3779;SDS011;1905;52.482;9.802;2023-02-27T02:11:49;2.80;;;2.60;;
3779;SDS011;1905;52.482;9.802;2023-02-27T02:14:17;2.40;;;2.23;;
3779;SDS011;1905;52.482;9.802;2023-02-27T02:16:51;5.50;;;2.30;;
3779;SDS011;1905;52.482;9.802;2023-02-27T02:22:39;4.93;;;2.83;;
3779;SDS011;1905;52.482;9.802;2023-02-27T02:28:31;3.30;;;2.40;;
3779;SDS011;1905;52.482;9.802;2023-02-27T02:31:45;5.17;;;2.60;;
3779;SDS011;1905;52.482;9.802;2023-02-27T02:34:33;3.00;;;2.17;;
3779;SDS011;1905;52.482;9.802;2023-02-27T02:37:28;2.37;;;2.27;;
3779;SDS011;1905;52.482;9.802;2023-02-27T02:40:19;3.93;;;2.80;;
3779;SDS011;1905;52.482;9.802;2023-02-27T02:42:53;3.47;;;2.87;;
3779;SDS011;1905;52.482;9.802;2023-02-27T02:45:26;2.90;;;2.27;;
3779;SDS011;1905;52.482;9.802;2023-02-27T02:47:59;5.77;;;2.77;;
3779;SDS011;1905;52.482;9.802;2023-02-27T02:50:37;2.50;;;2.30;;
3779;SDS011;1905;52.482;9.802;2023-02-27T02:53:15;3.40;;;2.70;;
3779;SDS011;1905;52.482;9.802;2023-02-27T02:55:51;4.00;;;3.17;;
3779;SDS011;1905;52.482;9.802;2023-02-27T02:58:27;4.83;;;3.40;;
3779;SDS011;1905;52.482;9.802;2023-02-27T03:01:02;3.80;;;2.03;;
3779;SDS011;1905;52.482;9.802;2023-02-27T03:03:35;4.07;;;2.50;;
3779;SDS011;1905;52.482;9.802;2023-02-27T03:06:08;4.40;;;2.30;;
3779;SDS011;1905;52.482;9.802;2023-02-27T03:08:41;4.53;;;3.33;;
3779;SDS011;1905;52.482;9.802;2023-02-27T03:11:15;5.37;;;3.20;;
3779;SDS011;1905;52.482;9.802;2023-02-27T03:13:44;8.97;;;2.83;;
3779;SDS011;1905;52.482;9.802;2023-02-27T03:16:17;5.50;;;2.40;;
3779;SDS011;1905;52.482;9.802;2023-02-27T03:18:51;3.83;;;2.30;;
3779;SDS011;1905;52.482;9.802;2023-02-27T03:21:26;4.13;;;3.47;;
3779;SDS011;1905;52.482;9.802;2023-02-27T03:24:02;6.57;;;2.70;;
3779;SDS011;1905;52.482;9.802;2023-02-27T03:26:37;4.10;;;2.37;;
3779;SDS011;1905;52.482;9.802;2023-02-27T03:29:10;3.43;;;2.40;;
3779;SDS011;1905;52.482;9.802;2023-02-27T03:31:43;3.10;;;2.90;;
3779;SDS011;1905;52.482;9.802;2023-02-27T03:34:16;2.37;;;2.17;;
3779;SDS011;1905;52.482;9.802;2023-02-27T03:36:48;5.13;;;2.63;;
3779;SDS011;1905;52.482;9.802;2023-02-27T03:39:26;2.93;;;2.63;;
3779;SDS011;1905;52.482;9.802;2023-02-27T03:42:05;3.60;;;2.10;;
3779;SDS011;1905;52.482;9.802;2023-02-27T03:45:03;3.17;;;2.10;;
3779;SDS011;1905;52.482;9.802;2023-02-27T03:47:34;3.00;;;2.17;;
3779;SDS011;1905;52.482;9.802;2023-02-27T03:50:02;1.90;;;1.80;;
3779;SDS011;1905;52.482;9.802;2023-02-27T03:52:30;3.53;;;2.93;;
3779;SDS011;1905;52.482;9.802;2023-02-27T03:54:59;4.70;;;3.10;;
3779;SDS011;1905;52.482;9.802;2023-02-27T03:57:32;3.03;;;2.17;;
3779;SDS011;1905;52.482;9.802;2023-02-27T04:00:00;3.33;;;2.40;;
3779;SDS011;1905;52.482;9.802;2023-02-27T04:02:38;2.90;;;2.53;;
3779;SDS011;1905;52.482;9.802;2023-02-27T04:05:08;2.07;;;1.87;;
3779;SDS011;1905;52.482;9.802;2023-02-27T04:07:42;4.37;;;2.13;;
3779;SDS011;1905;52.482;9.802;2023-02-27T04:10:31;10.10;;;3.13;;
3779;SDS011;1905;52.482;9.802;2023-02-27T04:13:29;3.27;;;2.10;;
3779;SDS011;1905;52.482;9.802;2023-02-27T04:16:22;2.57;;;2.30;;
3779;SDS011;1905;52.482;9.802;2023-02-27T04:19:08;5.97;;;3.17;;
3779;SDS011;1905;52.482;9.802;2023-02-27T04:21:47;4.23;;;2.60;;
3779;SDS011;1905;52.482;9.802;2023-02-27T04:24:27;2.87;;;2.63;;
3779;SDS011;1905;52.482;9.802;2023-02-27T04:27:02;3.20;;;2.70;;
3779;SDS011;1905;52.482;9.802;2023-02-27T04:29:38;3.00;;;2.73;;
3779;SDS011;1905;52.482;9.802;2023-02-27T04:32:14;3.10;;;2.87;;
3779;SDS011;1905;52.482;9.802;2023-02-27T04:34:47;3.10;;;2.30;;
3779;SDS011;1905;52.482;9.802;2023-02-27T04:37:20;4.57;;;2.60;;
3779;SDS011;1905;52.482;9.802;2023-02-27T04:39:52;2.70;;;2.20;;
3779;SDS011;1905;52.482;9.802;2023-02-27T04:42:24;5.43;;;3.10;;
3779;SDS011;1905;52.482;9.802;2023-02-27T04:44:56;4.03;;;2.23;;
3779;SDS011;1905;52.482;9.802;2023-02-27T04:47:30;3.83;;;3.03;;
3779;SDS011;1905;52.482;9.802;2023-02-27T04:50:04;3.47;;;3.17;;
3779;SDS011;1905;52.482;9.802;2023-02-27T04:52:37;5.20;;;2.07;;
3779;SDS011;1905;52.482;9.802;2023-02-27T04:55:07;2.40;;;1.97;;
3779;SDS011;1905;52.482;9.802;2023-02-27T04:57:40;2.60;;;2.20;;
3779;SDS011;1905;52.482;9.802;2023-02-27T05:00:16;4.03;;;2.30;;
3779;SDS011;1905;52.482;9.802;2023-02-27T05:02:49;2.30;;;2.10;;
3779;SDS011;1905;52.482;9.802;2023-02-27T05:05:21;2.77;;;2.00;;
3779;SDS011;1905;52.482;9.802;2023-02-27T05:07:53;2.40;;;2.20;;
3779;SDS011;1905;52.482;9.802;2023-02-27T05:10:26;3.57;;;2.70;;
3779;SDS011;1905;52.482;9.802;2023-02-27T05:13:00;2.73;;;2.10;;
3779;SDS011;1905;52.482;9.802;2023-02-27T05:15:34;5.23;;;1.77;;
3779;SDS011;1905;52.482;9.802;2023-02-27T05:18:05;3.17;;;2.93;;
3779;SDS011;1905;52.482;9.802;2023-02-27T05:20:37;3.33;;;2.80;;
3779;SDS011;1905;52.482;9.802;2023-02-27T05:23:13;3.00;;;2.40;;
3779;SDS011;1905;52.482;9.802;2023-02-27T05:25:48;6.77;;;2.63;;
3779;SDS011;1905;52.482;9.802;2023-02-27T05:28:22;3.47;;;2.40;;
3779;SDS011;1905;52.482;9.802;2023-02-27T05:31:00;2.67;;;2.47;;
3779;SDS011;1905;52.482;9.802;2023-02-27T05:33:32;2.70;;;2.50;;
3779;SDS011;1905;52.482;9.802;2023-02-27T05:36:06;4.10;;;2.63;;
3779;SDS011;1905;52.482;9.802;2023-02-27T05:38:39;3.77;;;2.43;;
3779;SDS011;1905;52.482;9.802;2023-02-27T05:41:10;5.20;;;3.10;;
3779;SDS011;1905;52.482;9.802;2023-02-27T05:43:40;8.03;;;3.80;;
3779;SDS011;1905;52.482;9.802;2023-02-27T05:46:13;2.50;;;2.30;;
3779;SDS011;1905;52.482;9.802;2023-02-27T05:48:45;2.50;;;2.30;;
3779;SDS011;1905;52.482;9.802;2023-02-27T05:51:17;4.30;;;2.77;;
3779;SDS011;1905;52.482;9.802;2023-02-27T05:53:48;3.83;;;3.23;;
3779;SDS011;1905;52.482;9.802;2023-02-27T05:56:29;10.30;;;4.40;;
3779;SDS011;1905;52.482;9.802;2023-02-27T05:59:03;5.30;;;3.10;;
3779;SDS011;1905;52.482;9.802;2023-02-27T06:01:36;2.97;;;2.40;;
3779;SDS011;1905;52.482;9.802;2023-02-27T06:04:03;2.83;;;2.40;;
3779;SDS011;1905;52.482;9.802;2023-02-27T06:06:31;2.10;;;2.00;;
3779;SDS011;1905;52.482;9.802;2023-02-27T06:09:01;4.13;;;2.70;;
3779;SDS011;1905;52.482;9.802;2023-02-27T06:11:29;9.10;;;3.30;;
3779;SDS011;1905;52.482;9.802;2023-02-27T06:13:56;2.70;;;2.50;;
3779;SDS011;1905;52.482;9.802;2023-02-27T06:16:24;3.40;;;3.10;;
3779;SDS011;1905;52.482;9.802;2023-02-27T06:18:53;3.50;;;3.00;;
3779;SDS011;1905;52.482;9.802;2023-02-27T06:21:21;11.83;;;3.67;;
3779;SDS011;1905;52.482;9.802;2023-02-27T06:23:49;4.83;;;3.40;;
3779;SDS011;1905;52.482;9.802;2023-02-27T06:26:16;6.00;;;4.30;;
3779;SDS011;1905;52.482;9.802;2023-02-27T06:28:43;3.90;;;3.00;;
3779;SDS011;1905;52.482;9.802;2023-02-27T06:31:11;9.13;;;5.80;;
3779;SDS011;1905;52.482;9.802;2023-02-27T06:33:39;15.37;;;8.20;;
3779;SDS011;1905;52.482;9.802;2023-02-27T06:36:13;10.67;;;6.97;;
3779;SDS011;1905;52.482;9.802;2023-02-27T06:38:40;23.77;;;10.10;;
3779;SDS011;1905;52.482;9.802;2023-02-27T06:41:08;15.30;;;8.97;;
3779;SDS011;1905;52.482;9.802;2023-02-27T06:43:35;13.93;;;7.70;;
3779;SDS011;1905;52.482;9.802;2023-02-27T06:46:03;10.33;;;6.37;;
3779;SDS011;1905;52.482;9.802;2023-02-27T06:48:31;12.87;;;7.20;;
3779;SDS011;1905;52.482;9.802;2023-02-27T06:50:59;11.60;;;5.67;;
3779;SDS011;1905;52.482;9.802;2023-02-27T06:53:27;14.00;;;7.03;;
3779;SDS011;1905;52.482;9.802;2023-02-27T06:55:55;12.10;;;7.50;;
3779;SDS011;1905;52.482;9.802;2023-02-27T06:58:23;11.27;;;6.80;;
3779;SDS011;1905;52.482;9.802;2023-02-27T07:00:51;12.03;;;6.80;;
3779;SDS011;1905;52.482;9.802;2023-02-27T07:03:18;24.60;;;10.50;;
3779;SDS011;1905;52.482;9.802;2023-02-27T07:05:46;11.20;;;7.97;;
3779;SDS011;1905;52.482;9.802;2023-02-27T07:08:13;6.00;;;4.63;;
3779;SDS011;1905;52.482;9.802;2023-02-27T07:10:44;17.77;;;5.20;;
3779;SDS011;1905;52.482;9.802;2023-02-27T07:13:12;9.87;;;6.30;;
3779;SDS011;1905;52.482;9.802;2023-02-27T07:15:44;6.37;;;4.50;;
3779;SDS011;1905;52.482;9.802;2023-02-27T07:18:12;9.03;;;5.03;;
3779;SDS011;1905;52.482;9.802;2023-02-27T07:20:39;5.60;;;5.00;;
3779;SDS011;1905;52.482;9.802;2023-02-27T07:23:07;5.40;;;4.30;;
3779;SDS011;1905;52.482;9.802;2023-02-27T07:25:35;31.43;;;15.00;;
3779;SDS011;1905;52.482;9.802;2023-02-27T07:28:04;20.70;;;10.30;;
3779;SDS011;1905;52.482;9.802;2023-02-27T07:30:32;9.70;;;5.57;;
3779;SDS011;1905;52.482;9.802;2023-02-27T07:32:59;6.43;;;4.27;;
3779;SDS011;1905;52.482;9.802;2023-02-27T07:35:27;5.30;;;4.03;;
3779;SDS011;1905;52.482;9.802;2023-02-27T07:37:54;13.07;;;5.80;;
3779;SDS011;1905;52.482;9.802;2023-02-27T07:40:22;7.50;;;5.67;;
3779;SDS011;1905;52.482;9.802;2023-02-27T07:42:49;9.20;;;5.10;;
3779;SDS011;1905;52.482;9.802;2023-02-27T07:45:19;8.57;;;4.47;;
3779;SDS011;1905;52.482;9.802;2023-02-27T07:47:48;8.97;;;5.97;;
3779;SDS011;1905;52.482;9.802;2023-02-27T07:50:15;7.13;;;5.47;;
3779;SDS011;1905;52.482;9.802;2023-02-27T07:52:43;7.47;;;5.00;;
3779;SDS011;1905;52.482;9.802;2023-02-27T07:55:11;4.97;;;4.57;;
3779;SDS011;1905;52.482;9.802;2023-02-27T07:57:39;5.73;;;5.07;;
3779;SDS011;1905;52.482;9.802;2023-02-27T08:00:07;12.33;;;4.40;;
3779;SDS011;1905;52.482;9.802;2023-02-27T08:02:40;4.70;;;4.30;;
3779;SDS011;1905;52.482;9.802;2023-02-27T08:05:07;3.87;;;3.50;;
3779;SDS011;1905;52.482;9.802;2023-02-27T08:07:35;5.20;;;4.27;;
3779;SDS011;1905;52.482;9.802;2023-02-27T08:10:03;5.67;;;3.80;;
3779;SDS011;1905;52.482;9.802;2023-02-27T08:12:30;9.90;;;5.20;;
3779;SDS011;1905;52.482;9.802;2023-02-27T08:14:58;7.00;;;4.90;;
3779;SDS011;1905;52.482;9.802;2023-02-27T08:17:25;5.07;;;3.30;;
3779;SDS011;1905;52.482;9.802;2023-02-27T08:19:54;7.03;;;5.23;;
3779;SDS011;1905;52.482;9.802;2023-02-27T08:22:22;7.23;;;4.50;;
3779;SDS011;1905;52.482;9.802;2023-02-27T08:24:49;8.83;;;5.93;;
3779;SDS011;1905;52.482;9.802;2023-02-27T08:27:17;10.47;;;5.77;;
3779;SDS011;1905;52.482;9.802;2023-02-27T08:29:44;10.67;;;7.07;;
3779;SDS011;1905;52.482;9.802;2023-02-27T08:32:12;7.13;;;4.77;;
3779;SDS011;1905;52.482;9.802;2023-02-27T08:34:39;10.13;;;4.70;;
3779;SDS011;1905;52.482;9.802;2023-02-27T08:37:08;6.90;;;3.77;;
3779;SDS011;1905;52.482;9.802;2023-02-27T08:39:35;4.63;;;4.30;;
3779;SDS011;1905;52.482;9.802;2023-02-27T08:42:03;10.77;;;5.93;;
3779;SDS011;1905;52.482;9.802;2023-02-27T08:44:32;6.07;;;4.33;;
3779;SDS011;1905;52.482;9.802;2023-02-27T08:46:59;4.40;;;4.00;;
3779;SDS011;1905;52.482;9.802;2023-02-27T08:49:27;8.47;;;4.10;;
3779;SDS011;1905;52.482;9.802;2023-02-27T08:51:54;6.07;;;4.53;;
3779;SDS011;1905;52.482;9.802;2023-02-27T08:54:23;6.47;;;4.67;;
3779;SDS011;1905;52.482;9.802;2023-02-27T08:56:51;8.03;;;5.13;;
3779;SDS011;1905;52.482;9.802;2023-02-27T08:59:18;7.27;;;4.00;;
3779;SDS011;1905;52.482;9.802;2023-02-27T09:01:46;5.73;;;5.00;;
3779;SDS011;1905;52.482;9.802;2023-02-27T09:04:14;6.17;;;4.77;;
3779;SDS011;1905;52.482;9.802;2023-02-27T09:06:42;9.27;;;5.17;;
3779;SDS011;1905;52.482;9.802;2023-02-27T09:09:09;9.90;;;5.00;;
3779;SDS011;1905;52.482;9.802;2023-02-27T09:11:38;4.50;;;4.10;;
3779;SDS011;1905;52.482;9.802;2023-02-27T09:14:06;14.07;;;4.70;;
3779;SDS011;1905;52.482;9.802;2023-02-27T09:16:33;5.03;;;3.20;;
3779;SDS011;1905;52.482;9.802;2023-02-27T09:19:01;8.37;;;4.73;;
3779;SDS011;1905;52.482;9.802;2023-02-27T09:21:28;9.23;;;3.90;;
3779;SDS011;1905;52.482;9.802;2023-02-27T09:23:57;5.13;;;4.00;;
3779;SDS011;1905;52.482;9.802;2023-02-27T09:26:43;10.23;;;4.30;;
3779;SDS011;1905;52.482;9.802;2023-02-27T09:29:12;3.50;;;3.20;;
3779;SDS011;1905;52.482;9.802;2023-02-27T09:31:39;6.77;;;3.90;;
3779;SDS011;1905;52.482;9.802;2023-02-27T09:34:07;8.73;;;4.43;;
3779;SDS011;1905;52.482;9.802;2023-02-27T09:36:34;7.03;;;4.20;;
3779;SDS011;1905;52.482;9.802;2023-02-27T09:39:02;9.93;;;4.30;;
3779;SDS011;1905;52.482;9.802;2023-02-27T09:41:38;6.30;;;3.87;;
3779;SDS011;1905;52.482;9.802;2023-02-27T09:44:16;7.90;;;4.03;;
3779;SDS011;1905;52.482;9.802;2023-02-27T09:47:12;4.30;;;3.90;;
3779;SDS011;1905;52.482;9.802;2023-02-27T09:49:46;9.73;;;4.27;;
3779;SDS011;1905;52.482;9.802;2023-02-27T09:52:20;7.70;;;4.60;;
3779;SDS011;1905;52.482;9.802;2023-02-27T09:54:48;4.73;;;3.60;;
3779;SDS011;1905;52.482;9.802;2023-02-27T09:57:16;5.17;;;3.00;;
3779;SDS011;1905;52.482;9.802;2023-02-27T09:59:53;9.93;;;4.80;;
3779;SDS011;1905;52.482;9.802;2023-02-27T10:02:29;7.10;;;3.67;;
3779;SDS011;1905;52.482;9.802;2023-02-27T10:05:07;4.07;;;3.10;;
3779;SDS011;1905;52.482;9.802;2023-02-27T10:07:43;7.43;;;3.60;;
3779;SDS011;1905;52.482;9.802;2023-02-27T10:10:19;5.20;;;3.17;;
3779;SDS011;1905;52.482;9.802;2023-02-27T10:13:02;6.03;;;4.00;;
3779;SDS011;1905;52.482;9.802;2023-02-27T10:15:55;4.20;;;3.40;;
3779;SDS011;1905;52.482;9.802;2023-02-27T10:18:25;6.83;;;3.37;;
3779;SDS011;1905;52.482;9.802;2023-02-27T10:20:57;7.20;;;3.77;;
3779;SDS011;1905;52.482;9.802;2023-02-27T10:23:30;7.53;;;3.43;;
3779;SDS011;1905;52.482;9.802;2023-02-27T10:26:01;4.30;;;3.87;;
3779;SDS011;1905;52.482;9.802;2023-02-27T10:28:30;3.93;;;2.47;;
3779;SDS011;1905;52.482;9.802;2023-02-27T10:31:00;5.50;;;3.20;;
3779;SDS011;1905;52.482;9.802;2023-02-27T10:33:31;3.70;;;3.07;;
3779;SDS011;1905;52.482;9.802;2023-02-27T10:36:02;4.10;;;2.90;;
3779;SDS011;1905;52.482;9.802;2023-02-27T10:38:41;4.57;;;3.27;;
3779;SDS011;1905;52.482;9.802;2023-02-27T10:41:12;5.53;;;3.10;;
3779;SDS011;1905;52.482;9.802;2023-02-27T10:43:40;2.97;;;2.70;;
3779;SDS011;1905;52.482;9.802;2023-02-27T10:46:11;7.67;;;2.50;;
3779;SDS011;1905;52.482;9.802;2023-02-27T10:48:41;4.73;;;3.27;;
3779;SDS011;1905;52.482;9.802;2023-02-27T10:51:18;4.77;;;3.20;;
3779;SDS011;1905;52.482;9.802;2023-02-27T10:53:49;15.10;;;3.30;;
3779;SDS011;1905;52.482;9.802;2023-02-27T10:56:20;5.70;;;3.07;;
3779;SDS011;1905;52.482;9.802;2023-02-27T10:59:00;4.17;;;2.60;;
3779;SDS011;1905;52.482;9.802;2023-02-27T11:01:40;5.73;;;3.00;;
3779;SDS011;1905;52.482;9.802;2023-02-27T11:04:09;4.73;;;2.43;;
3779;SDS011;1905;52.482;9.802;2023-02-27T11:06:38;6.33;;;2.57;;
3779;SDS011;1905;52.482;9.802;2023-02-27T11:09:09;3.20;;;2.57;;
3779;SDS011;1905;52.482;9.802;2023-02-27T11:11:38;4.13;;;2.40;;
3779;SDS011;1905;52.482;9.802;2023-02-27T11:14:15;3.60;;;2.10;;
3779;SDS011;1905;52.482;9.802;2023-02-27T11:16:53;6.53;;;2.70;;
3779;SDS011;1905;52.482;9.802;2023-02-27T11:19:22;4.47;;;3.20;;
3779;SDS011;1905;52.482;9.802;2023-02-27T11:21:58;7.33;;;3.57;;
3779;SDS011;1905;52.482;9.802;2023-02-27T11:24:27;2.97;;;2.70;;
3779;SDS011;1905;52.482;9.802;2023-02-27T11:26:56;7.70;;;2.60;;
3779;SDS011;1905;52.482;9.802;2023-02-27T11:29:25;3.33;;;2.57;;
3779;SDS011;1905;52.482;9.802;2023-02-27T11:31:56;13.57;;;2.73;;
3779;SDS011;1905;52.482;9.802;2023-02-27T11:34:27;3.13;;;2.80;;
3779;SDS011;1905;52.482;9.802;2023-02-27T11:37:01;3.80;;;2.23;;
3779;SDS011;1905;52.482;9.802;2023-02-27T11:39:35;3.57;;;2.63;;
3779;SDS011;1905;52.482;9.802;2023-02-27T11:42:11;5.73;;;2.23;;
3779;SDS011;1905;52.482;9.802;2023-02-27T11:44:51;6.77;;;2.00;;
3779;SDS011;1905;52.482;9.802;2023-02-27T11:47:26;2.13;;;1.97;;
3779;SDS011;1905;52.482;9.802;2023-02-27T11:52:57;3.43;;;2.27;;
3779;SDS011;1905;52.482;9.802;2023-02-27T11:55:41;2.97;;;2.23;;
3779;SDS011;1905;52.482;9.802;2023-02-27T11:58:10;4.97;;;2.20;;
3779;SDS011;1905;52.482;9.802;2023-02-27T12:00:43;4.83;;;3.03;;
3779;SDS011;1905;52.482;9.802;2023-02-27T12:03:18;2.90;;;2.70;;
3779;SDS011;1905;52.482;9.802;2023-02-27T12:05:50;3.70;;;2.90;;
3779;SDS011;1905;52.482;9.802;2023-02-27T12:08:22;3.13;;;2.70;;
3779;SDS011;1905;52.482;9.802;2023-02-27T12:10:58;3.13;;;2.10;;
3779;SDS011;1905;52.482;9.802;2023-02-27T12:13:40;2.83;;;2.07;;
3779;SDS011;1905;52.482;9.802;2023-02-27T12:16:11;1.90;;;1.80;;
3779;SDS011;1905;52.482;9.802;2023-02-27T12:18:47;4.67;;;1.43;;
3779;SDS011;1905;52.482;9.802;2023-02-27T12:21:20;1.90;;;1.40;;
3779;SDS011;1905;52.482;9.802;2023-02-27T12:23:52;2.90;;;1.83;;
3779;SDS011;1905;52.482;9.802;2023-02-27T12:26:23;2.70;;;2.03;;
3779;SDS011;1905;52.482;9.802;2023-02-27T12:28:57;6.20;;;1.70;;
3779;SDS011;1905;52.482;9.802;2023-02-27T12:31:41;2.20;;;2.00;;
3779;SDS011;1905;52.482;9.802;2023-02-27T12:34:18;5.00;;;2.70;;
3779;SDS011;1905;52.482;9.802;2023-02-27T12:36:51;3.93;;;2.90;;
3779;SDS011;1905;52.482;9.802;2023-02-27T12:39:19;3.33;;;2.17;;
3779;SDS011;1905;52.482;9.802;2023-02-27T12:48:04;2.97;;;1.90;;
3779;SDS011;1905;52.482;9.802;2023-02-27T12:50:47;2.10;;;1.60;;
3779;SDS011;1905;52.482;9.802;2023-02-27T12:53:25;2.23;;;1.43;;
3779;SDS011;1905;52.482;9.802;2023-02-27T12:56:05;2.90;;;2.10;;
3779;SDS011;1905;52.482;9.802;2023-02-27T12:58:39;3.60;;;2.40;;
3779;SDS011;1905;52.482;9.802;2023-02-27T13:01:17;1.97;;;1.80;;
3779;SDS011;1905;52.482;9.802;2023-02-27T13:03:59;2.50;;;1.73;;
3779;SDS011;1905;52.482;9.802;2023-02-27T13:06:36;2.80;;;1.60;;
3779;SDS011;1905;52.482;9.802;2023-02-27T13:09:13;3.00;;;1.83;;
3779;SDS011;1905;52.482;9.802;2023-02-27T13:11:52;3.00;;;1.83;;
3779;SDS011;1905;52.482;9.802;2023-02-27T13:14:27;4.27;;;1.80;;
3779;SDS011;1905;52.482;9.802;2023-02-27T13:17:02;2.13;;;1.50;;
3779;SDS011;1905;52.482;9.802;2023-02-27T13:19:33;2.83;;;1.40;;
3779;SDS011;1905;52.482;9.802;2023-02-27T13:22:08;2.60;;;2.00;;
3779;SDS011;1905;52.482;9.802;2023-02-27T13:24:44;1.60;;;1.50;;
3779;SDS011;1905;52.482;9.802;2023-02-27T13:27:18;1.90;;;1.33;;
3779;SDS011;1905;52.482;9.802;2023-02-27T13:29:51;1.87;;;1.77;;
3779;SDS011;1905;52.482;9.802;2023-02-27T13:32:27;1.23;;;1.13;;
3779;SDS011;1905;52.482;9.802;2023-02-27T13:35:13;3.10;;;2.03;;
3779;SDS011;1905;52.482;9.802;2023-02-27T13:37:48;2.00;;;1.40;;
3779;SDS011;1905;52.482;9.802;2023-02-27T13:40:27;1.40;;;1.30;;
3779;SDS011;1905;52.482;9.802;2023-02-27T13:42:58;1.43;;;1.20;;
3779;SDS011;1905;52.482;9.802;2023-02-27T13:51:42;1.37;;;1.20;;
3779;SDS011;1905;52.482;9.802;2023-02-27T13:54:20;1.10;;;1.00;;
3779;SDS011;1905;52.482;9.802;2023-02-27T13:57:04;5.90;;;1.50;;
3779;SDS011;1905;52.482;9.802;2023-02-27T13:59:34;1.57;;;1.47;;
3779;SDS011;1905;52.482;9.802;2023-02-27T14:02:05;2.80;;;1.00;;
3779;SDS011;1905;52.482;9.802;2023-02-27T14:04:56;2.93;;;1.80;;
3779;SDS011;1905;52.482;9.802;2023-02-27T14:07:28;1.70;;;1.40;;
3779;SDS011;1905;52.482;9.802;2023-02-27T14:10:01;4.63;;;1.40;;
3779;SDS011;1905;52.482;9.802;2023-02-27T14:12:35;2.60;;;1.40;;
3779;SDS011;1905;52.482;9.802;2023-02-27T14:24:14;1.40;;;1.30;;
3779;SDS011;1905;52.482;9.802;2023-02-27T14:26:44;2.50;;;1.40;;
3779;SDS011;1905;52.482;9.802;2023-02-27T14:29:16;1.60;;;1.50;;
3779;SDS011;1905;52.482;9.802;2023-02-27T14:31:46;2.53;;;1.13;;
3779;SDS011;1905;52.482;9.802;2023-02-27T14:34:15;2.00;;;1.63;;
3779;SDS011;1905;52.482;9.802;2023-02-27T14:36:46;3.47;;;1.60;;
3779;SDS011;1905;52.482;9.802;2023-02-27T14:39:18;1.90;;;1.37;;
3779;SDS011;1905;52.482;9.802;2023-02-27T14:41:52;1.37;;;1.20;;
3779;SDS011;1905;52.482;9.802;2023-02-27T14:44:31;2.13;;;1.43;;
3779;SDS011;1905;52.482;9.802;2023-02-27T14:47:04;2.60;;;1.20;;
3779;SDS011;1905;52.482;9.802;2023-02-27T14:49:32;2.67;;;1.40;;
3779;SDS011;1905;52.482;9.802;2023-02-27T14:52:10;3.33;;;1.70;;
3779;SDS011;1905;52.482;9.802;2023-02-27T14:54:39;1.60;;;1.50;;
3779;SDS011;1905;52.482;9.802;2023-02-27T14:57:14;2.70;;;1.47;;
3779;SDS011;1905;52.482;9.802;2023-02-27T14:59:44;1.83;;;1.37;;
3779;SDS011;1905;52.482;9.802;2023-02-27T15:02:15;2.80;;;1.50;;
3779;SDS011;1905;52.482;9.802;2023-02-27T15:04:48;3.67;;;1.80;;
3779;SDS011;1905;52.482;9.802;2023-02-27T15:07:22;3.03;;;1.80;;
3779;SDS011;1905;52.482;9.802;2023-02-27T15:09:52;4.57;;;1.93;;
3779;SDS011;1905;52.482;9.802;2023-02-27T15:12:23;2.70;;;1.43;;
3779;SDS011;1905;52.482;9.802;2023-02-27T15:14:54;3.03;;;1.60;;
3779;SDS011;1905;52.482;9.802;2023-02-27T15:17:24;3.03;;;1.50;;
3779;SDS011;1905;52.482;9.802;2023-02-27T15:19:54;1.27;;;1.17;;
3779;SDS011;1905;52.482;9.802;2023-02-27T15:22:24;3.90;;;1.70;;
3779;SDS011;1905;52.482;9.802;2023-02-27T15:25:04;3.27;;;1.33;;
3779;SDS011;1905;52.482;9.802;2023-02-27T15:27:34;2.50;;;2.30;;
3779;SDS011;1905;52.482;9.802;2023-02-27T15:30:03;6.13;;;2.00;;
3779;SDS011;1905;52.482;9.802;2023-02-27T15:32:34;1.40;;;1.23;;
3779;SDS011;1905;52.482;9.802;2023-02-27T15:35:05;1.73;;;1.50;;
3779;SDS011;1905;52.482;9.802;2023-02-27T15:37:42;1.57;;;1.20;;
3779;SDS011;1905;52.482;9.802;2023-02-27T15:40:16;2.90;;;1.70;;
3779;SDS011;1905;52.482;9.802;2023-02-27T15:42:48;1.30;;;1.30;;
3779;SDS011;1905;52.482;9.802;2023-02-27T15:45:16;1.40;;;1.30;;
3779;SDS011;1905;52.482;9.802;2023-02-27T15:47:45;1.50;;;1.40;;
3779;SDS011;1905;52.482;9.802;2023-02-27T15:50:22;1.63;;;1.53;;
3779;SDS011;1905;52.482;9.802;2023-02-27T15:52:53;1.60;;;1.33;;
3779;SDS011;1905;52.482;9.802;2023-02-27T15:55:26;3.27;;;1.33;;
3779;SDS011;1905;52.482;9.802;2023-02-27T15:57:57;2.00;;;1.30;;
3779;SDS011;1905;52.482;9.802;2023-02-27T16:00:29;1.83;;;1.60;;
3779;SDS011;1905;52.482;9.802;2023-02-27T16:02:57;5.10;;;4.17;;
3779;SDS011;1905;52.482;9.802;2023-02-27T16:05:27;5.53;;;3.30;;
3779;SDS011;1905;52.482;9.802;2023-02-27T16:07:59;2.80;;;1.83;;
3779;SDS011;1905;52.482;9.802;2023-02-27T16:10:29;33.10;;;14.40;;
3779;SDS011;1905;52.482;9.802;2023-02-27T16:15:56;3.23;;;2.30;;
3779;SDS011;1905;52.482;9.802;2023-02-27T16:18:27;2.80;;;2.40;;